sensor_id;sensor_type;location;lat;lon;timestamp;P1;durP1;ratioP1;P2;durP2;ratioP2
6828;SDS011;17930;48.592;8.868;2024-01-15T00:00:09;14.68;;;5.72;;
6828;SDS011;17930;48.592;8.868;2024-01-15T00:02:38;17.60;;;6.65;;
6828;SDS011;17930;48.592;8.868;2024-01-15T00:05:05;14.77;;;5.90;;
6828;SDS011;17930;48.592;8.868;2024-01-15T00:07:32;13.82;;;5.50;;
6828;SDS011;17930;48.592;8.868;2024-01-15T00:09:58;13.07;;;5.78;;
6828;SDS011;17930;48.592;8.868;2024-01-15T00:12:25;14.40;;;5.40;;
6828;SDS011;17930;48.592;8.868;2024-01-15T00:14:52;12.05;;;5.95;;
6828;SDS011;17930;48.592;8.868;2024-01-15T00:17:19;13.52;;;5.03;;
6828;SDS011;17930;48.592;8.868;2024-01-15T00:19:47;17.83;;;6.03;;
6828;SDS011;17930;48.592;8.868;2024-01-15T00:22:14;17.80;;;6.22;;
6828;SDS011;17930;48.592;8.868;2024-01-15T00:24:40;14.45;;;5.22;;
6828;SDS011;17930;48.592;8.868;2024-01-15T00:27:07;13.65;;;5.57;;
6828;SDS011;17930;48.592;8.868;2024-01-15T00:29:33;13.60;;;4.55;;
6828;SDS011;17930;48.592;8.868;2024-01-15T00:32:00;12.82;;;5.45;;
6828;SDS011;17930;48.592;8.868;2024-01-15T00:34:27;17.80;;;7.18;;
6828;SDS011;17930;48.592;8.868;2024-01-15T00:36:55;12.48;;;4.53;;
6828;SDS011;17930;48.592;8.868;2024-01-15T00:39:21;13.35;;;4.70;;
6828;SDS011;17930;48.592;8.868;2024-01-15T00:41:48;16.35;;;5.35;;
6828;SDS011;17930;48.592;8.868;2024-01-15T00:44:15;14.38;;;6.22;;
6828;SDS011;17930;48.592;8.868;2024-01-15T00:46:43;16.23;;;5.78;;
6828;SDS011;17930;48.592;8.868;2024-01-15T00:49:11;19.08;;;6.25;;
6828;SDS011;17930;48.592;8.868;2024-01-15T00:51:38;15.05;;;5.85;;
6828;SDS011;17930;48.592;8.868;2024-01-15T00:54:06;14.52;;;6.25;;
6828;SDS011;17930;48.592;8.868;2024-01-15T00:56:33;13.80;;;5.43;;
6828;SDS011;17930;48.592;8.868;2024-01-15T00:59:00;11.95;;;4.78;;
6828;SDS011;17930;48.592;8.868;2024-01-15T01:01:27;12.77;;;5.22;;
6828;SDS011;17930;48.592;8.868;2024-01-15T01:03:54;13.00;;;5.85;;
6828;SDS011;17930;48.592;8.868;2024-01-15T01:06:21;18.05;;;5.30;;
6828;SDS011;17930;48.592;8.868;2024-01-15T01:08:47;13.02;;;5.60;;
6828;SDS011;17930;48.592;8.868;2024-01-15T01:11:15;15.77;;;5.70;;
6828;SDS011;17930;48.592;8.868;2024-01-15T01:13:42;13.52;;;5.00;;
6828;SDS011;17930;48.592;8.868;2024-01-15T01:16:09;13.93;;;5.15;;
6828;SDS011;17930;48.592;8.868;2024-01-15T01:18:36;10.82;;;4.82;;
6828;SDS011;17930;48.592;8.868;2024-01-15T01:21:03;13.45;;;5.30;;
6828;SDS011;17930;48.592;8.868;2024-01-15T01:23:30;9.50;;;4.28;;
6828;SDS011;17930;48.592;8.868;2024-01-15T01:25:56;14.75;;;5.38;;
6828;SDS011;17930;48.592;8.868;2024-01-15T01:28:25;12.27;;;4.70;;
6828;SDS011;17930;48.592;8.868;2024-01-15T01:30:51;10.48;;;4.72;;
6828;SDS011;17930;48.592;8.868;2024-01-15T01:33:18;13.85;;;5.10;;
6828;SDS011;17930;48.592;8.868;2024-01-15T01:35:46;12.40;;;5.00;;
6828;SDS011;17930;48.592;8.868;2024-01-15T01:38:13;9.23;;;5.18;;
6828;SDS011;17930;48.592;8.868;2024-01-15T01:40:39;10.57;;;4.53;;
6828;SDS011;17930;48.592;8.868;2024-01-15T01:43:08;15.52;;;4.78;;
6828;SDS011;17930;48.592;8.868;2024-01-15T01:45:37;13.75;;;4.85;;
6828;SDS011;17930;48.592;8.868;2024-01-15T01:48:04;12.35;;;5.60;;
6828;SDS011;17930;48.592;8.868;2024-01-15T01:50:31;12.10;;;4.80;;
6828;SDS011;17930;48.592;8.868;2024-01-15T01:52:59;13.48;;;4.97;;
6828;SDS011;17930;48.592;8.868;2024-01-15T01:55:29;14.48;;;5.32;;
6828;SDS011;17930;48.592;8.868;2024-01-15T01:57:58;13.18;;;4.97;;
6828;SDS011;17930;48.592;8.868;2024-01-15T02:00:29;17.65;;;6.07;;
6828;SDS011;17930;48.592;8.868;2024-01-15T02:02:58;11.38;;;4.72;;
6828;SDS011;17930;48.592;8.868;2024-01-15T02:05:26;14.07;;;5.72;;
6828;SDS011;17930;48.592;8.868;2024-01-15T02:07:53;14.85;;;4.85;;
6828;SDS011;17930;48.592;8.868;2024-01-15T02:10:20;11.07;;;5.30;;
6828;SDS011;17930;48.592;8.868;2024-01-15T02:12:47;15.93;;;4.80;;
6828;SDS011;17930;48.592;8.868;2024-01-15T02:15:14;12.13;;;4.85;;
6828;SDS011;17930;48.592;8.868;2024-01-15T02:20:25;11.57;;;4.68;;
6828;SDS011;17930;48.592;8.868;2024-01-15T02:22:52;17.15;;;5.35;;
6828;SDS011;17930;48.592;8.868;2024-01-15T02:25:28;11.85;;;5.03;;
6828;SDS011;17930;48.592;8.868;2024-01-15T02:27:56;14.07;;;5.47;;
6828;SDS011;17930;48.592;8.868;2024-01-15T02:30:22;11.48;;;4.43;;
6828;SDS011;17930;48.592;8.868;2024-01-15T02:32:51;15.48;;;5.50;;
6828;SDS011;17930;48.592;8.868;2024-01-15T02:35:18;17.58;;;5.65;;
6828;SDS011;17930;48.592;8.868;2024-01-15T02:37:45;16.38;;;5.70;;
6828;SDS011;17930;48.592;8.868;2024-01-15T02:40:13;12.85;;;5.10;;
6828;SDS011;17930;48.592;8.868;2024-01-15T02:42:40;13.60;;;5.57;;
6828;SDS011;17930;48.592;8.868;2024-01-15T02:45:07;14.98;;;4.97;;
6828;SDS011;17930;48.592;8.868;2024-01-15T02:47:35;16.95;;;5.95;;
6828;SDS011;17930;48.592;8.868;2024-01-15T02:50:01;15.05;;;5.22;;
6828;SDS011;17930;48.592;8.868;2024-01-15T02:52:28;17.40;;;6.15;;
6828;SDS011;17930;48.592;8.868;2024-01-15T02:54:55;13.07;;;5.32;;
6828;SDS011;17930;48.592;8.868;2024-01-15T02:57:23;15.80;;;6.55;;
6828;SDS011;17930;48.592;8.868;2024-01-15T02:59:50;18.70;;;6.13;;
6828;SDS011;17930;48.592;8.868;2024-01-15T03:02:17;13.65;;;5.88;;
6828;SDS011;17930;48.592;8.868;2024-01-15T03:04:43;12.65;;;5.72;;
6828;SDS011;17930;48.592;8.868;2024-01-15T03:07:10;16.50;;;5.15;;
6828;SDS011;17930;48.592;8.868;2024-01-15T03:09:37;16.08;;;6.45;;
6828;SDS011;17930;48.592;8.868;2024-01-15T03:12:04;16.73;;;5.65;;
6828;SDS011;17930;48.592;8.868;2024-01-15T03:14:33;14.95;;;5.35;;
6828;SDS011;17930;48.592;8.868;2024-01-15T03:17:00;15.60;;;6.60;;
6828;SDS011;17930;48.592;8.868;2024-01-15T03:19:29;14.75;;;5.82;;
6828;SDS011;17930;48.592;8.868;2024-01-15T03:21:56;15.05;;;5.60;;
6828;SDS011;17930;48.592;8.868;2024-01-15T03:24:23;17.35;;;6.10;;
6828;SDS011;17930;48.592;8.868;2024-01-15T03:26:50;16.30;;;6.32;;
6828;SDS011;17930;48.592;8.868;2024-01-15T03:29:17;16.00;;;6.47;;
6828;SDS011;17930;48.592;8.868;2024-01-15T03:31:45;15.32;;;5.35;;
6828;SDS011;17930;48.592;8.868;2024-01-15T03:34:11;13.68;;;6.32;;
6828;SDS011;17930;48.592;8.868;2024-01-15T03:36:38;17.15;;;5.88;;
6828;SDS011;17930;48.592;8.868;2024-01-15T03:39:06;17.90;;;7.03;;
6828;SDS011;17930;48.592;8.868;2024-01-15T03:41:32;16.25;;;5.93;;
6828;SDS011;17930;48.592;8.868;2024-01-15T03:43:59;14.32;;;6.30;;
6828;SDS011;17930;48.592;8.868;2024-01-15T03:46:26;18.27;;;6.60;;
6828;SDS011;17930;48.592;8.868;2024-01-15T03:48:55;20.60;;;6.40;;
6828;SDS011;17930;48.592;8.868;2024-01-15T03:51:22;18.58;;;6.55;;
6828;SDS011;17930;48.592;8.868;2024-01-15T03:53:49;20.52;;;7.13;;
6828;SDS011;17930;48.592;8.868;2024-01-15T03:56:16;20.25;;;6.65;;
6828;SDS011;17930;48.592;8.868;2024-01-15T03:58:43;17.50;;;6.00;;
6828;SDS011;17930;48.592;8.868;2024-01-15T04:01:10;14.32;;;5.70;;
6828;SDS011;17930;48.592;8.868;2024-01-15T04:03:37;22.15;;;7.15;;
6828;SDS011;17930;48.592;8.868;2024-01-15T04:06:05;19.25;;;7.50;;
6828;SDS011;17930;48.592;8.868;2024-01-15T04:08:32;20.50;;;6.85;;
6828;SDS011;17930;48.592;8.868;2024-01-15T04:10:59;16.10;;;6.47;;
6828;SDS011;17930;48.592;8.868;2024-01-15T04:13:26;18.67;;;7.63;;
6828;SDS011;17930;48.592;8.868;2024-01-15T04:15:53;19.90;;;7.00;;
6828;SDS011;17930;48.592;8.868;2024-01-15T04:18:20;19.38;;;6.30;;
6828;SDS011;17930;48.592;8.868;2024-01-15T04:20:46;18.35;;;7.05;;
6828;SDS011;17930;48.592;8.868;2024-01-15T04:23:15;27.02;;;7.97;;
6828;SDS011;17930;48.592;8.868;2024-01-15T04:25:41;15.85;;;6.78;;
6828;SDS011;17930;48.592;8.868;2024-01-15T04:28:08;18.27;;;7.03;;
6828;SDS011;17930;48.592;8.868;2024-01-15T04:30:35;19.48;;;6.53;;
6828;SDS011;17930;48.592;8.868;2024-01-15T04:33:02;17.98;;;6.47;;
6828;SDS011;17930;48.592;8.868;2024-01-15T04:35:29;23.48;;;8.00;;
6828;SDS011;17930;48.592;8.868;2024-01-15T04:37:56;17.48;;;6.55;;
6828;SDS011;17930;48.592;8.868;2024-01-15T04:40:24;16.02;;;5.90;;
6828;SDS011;17930;48.592;8.868;2024-01-15T04:42:52;21.45;;;6.88;;
6828;SDS011;17930;48.592;8.868;2024-01-15T04:45:19;19.33;;;6.93;;
6828;SDS011;17930;48.592;8.868;2024-01-15T04:47:47;17.15;;;6.05;;
6828;SDS011;17930;48.592;8.868;2024-01-15T04:50:14;17.90;;;6.38;;
6828;SDS011;17930;48.592;8.868;2024-01-15T04:52:41;23.05;;;7.22;;
6828;SDS011;17930;48.592;8.868;2024-01-15T04:55:08;17.27;;;6.55;;
6828;SDS011;17930;48.592;8.868;2024-01-15T04:57:36;19.83;;;6.57;;
6828;SDS011;17930;48.592;8.868;2024-01-15T05:00:03;16.17;;;6.70;;
6828;SDS011;17930;48.592;8.868;2024-01-15T05:02:30;16.85;;;6.30;;
6828;SDS011;17930;48.592;8.868;2024-01-15T05:04:57;12.73;;;5.47;;
6828;SDS011;17930;48.592;8.868;2024-01-15T05:07:23;15.70;;;6.05;;
6828;SDS011;17930;48.592;8.868;2024-01-15T05:09:50;15.50;;;5.15;;
6828;SDS011;17930;48.592;8.868;2024-01-15T05:12:16;12.50;;;5.38;;
6828;SDS011;17930;48.592;8.868;2024-01-15T05:14:45;13.68;;;5.95;;
6828;SDS011;17930;48.592;8.868;2024-01-15T05:17:11;17.02;;;5.45;;
6828;SDS011;17930;48.592;8.868;2024-01-15T05:19:38;14.07;;;6.07;;
6828;SDS011;17930;48.592;8.868;2024-01-15T05:22:04;16.30;;;5.53;;
6828;SDS011;17930;48.592;8.868;2024-01-15T05:24:31;14.00;;;5.88;;
6828;SDS011;17930;48.592;8.868;2024-01-15T05:26:57;14.68;;;5.88;;
6828;SDS011;17930;48.592;8.868;2024-01-15T05:29:24;15.63;;;5.93;;
6828;SDS011;17930;48.592;8.868;2024-01-15T05:31:53;13.07;;;6.05;;
6828;SDS011;17930;48.592;8.868;2024-01-15T05:34:20;12.48;;;4.43;;
6828;SDS011;17930;48.592;8.868;2024-01-15T05:36:46;13.07;;;5.40;;
6828;SDS011;17930;48.592;8.868;2024-01-15T05:39:13;13.48;;;4.97;;
6828;SDS011;17930;48.592;8.868;2024-01-15T05:41:40;11.35;;;5.15;;
6828;SDS011;17930;48.592;8.868;2024-01-15T05:44:07;11.48;;;5.35;;
6828;SDS011;17930;48.592;8.868;2024-01-15T05:46:33;13.48;;;5.25;;
6828;SDS011;17930;48.592;8.868;2024-01-15T05:49:01;16.15;;;5.97;;
6828;SDS011;17930;48.592;8.868;2024-01-15T05:51:28;13.02;;;5.28;;
6828;SDS011;17930;48.592;8.868;2024-01-15T05:53:55;12.85;;;5.85;;
6828;SDS011;17930;48.592;8.868;2024-01-15T05:56:22;16.73;;;5.60;;
6828;SDS011;17930;48.592;8.868;2024-01-15T05:58:49;19.25;;;7.95;;
6828;SDS011;17930;48.592;8.868;2024-01-15T06:01:16;25.45;;;10.18;;
6828;SDS011;17930;48.592;8.868;2024-01-15T06:03:42;24.00;;;10.05;;
6828;SDS011;17930;48.592;8.868;2024-01-15T06:06:10;26.27;;;9.93;;
6828;SDS011;17930;48.592;8.868;2024-01-15T06:08:37;19.48;;;8.10;;
6828;SDS011;17930;48.592;8.868;2024-01-15T06:11:04;22.60;;;9.10;;
6828;SDS011;17930;48.592;8.868;2024-01-15T06:13:30;17.10;;;6.57;;
6828;SDS011;17930;48.592;8.868;2024-01-15T06:15:57;19.67;;;7.05;;
6828;SDS011;17930;48.592;8.868;2024-01-15T06:18:24;15.57;;;6.88;;
6828;SDS011;17930;48.592;8.868;2024-01-15T06:20:49;13.63;;;6.20;;
6828;SDS011;17930;48.592;8.868;2024-01-15T06:23:17;17.02;;;8.07;;
6828;SDS011;17930;48.592;8.868;2024-01-15T06:25:44;20.60;;;8.02;;
6828;SDS011;17930;48.592;8.868;2024-01-15T06:28:11;21.67;;;7.22;;
6828;SDS011;17930;48.592;8.868;2024-01-15T06:30:37;15.05;;;6.53;;
6828;SDS011;17930;48.592;8.868;2024-01-15T06:33:04;13.40;;;6.43;;
6828;SDS011;17930;48.592;8.868;2024-01-15T06:35:31;18.30;;;7.55;;
6828;SDS011;17930;48.592;8.868;2024-01-15T06:37:59;19.23;;;7.13;;
6828;SDS011;17930;48.592;8.868;2024-01-15T06:40:27;17.85;;;7.07;;
6828;SDS011;17930;48.592;8.868;2024-01-15T06:42:54;12.70;;;5.88;;
6828;SDS011;17930;48.592;8.868;2024-01-15T06:45:20;18.25;;;6.90;;
6828;SDS011;17930;48.592;8.868;2024-01-15T06:47:47;15.35;;;6.10;;
6828;SDS011;17930;48.592;8.868;2024-01-15T06:50:14;14.35;;;5.88;;
6828;SDS011;17930;48.592;8.868;2024-01-15T06:52:40;14.07;;;6.07;;
6828;SDS011;17930;48.592;8.868;2024-01-15T06:55:07;16.95;;;6.60;;
6828;SDS011;17930;48.592;8.868;2024-01-15T06:57:35;15.13;;;6.82;;
6828;SDS011;17930;48.592;8.868;2024-01-15T07:00:02;15.38;;;6.05;;
6828;SDS011;17930;48.592;8.868;2024-01-15T07:02:33;14.52;;;6.20;;
6828;SDS011;17930;48.592;8.868;2024-01-15T07:04:59;13.40;;;5.70;;
6828;SDS011;17930;48.592;8.868;2024-01-15T07:07:26;14.70;;;6.55;;
6828;SDS011;17930;48.592;8.868;2024-01-15T07:09:55;14.68;;;6.03;;
6828;SDS011;17930;48.592;8.868;2024-01-15T07:12:21;14.55;;;5.95;;
6828;SDS011;17930;48.592;8.868;2024-01-15T07:14:50;17.15;;;6.22;;
6828;SDS011;17930;48.592;8.868;2024-01-15T07:17:16;12.13;;;5.50;;
6828;SDS011;17930;48.592;8.868;2024-01-15T07:19:43;16.92;;;5.13;;
6828;SDS011;17930;48.592;8.868;2024-01-15T07:22:09;14.57;;;5.43;;
6828;SDS011;17930;48.592;8.868;2024-01-15T07:24:36;12.57;;;6.10;;
6828;SDS011;17930;48.592;8.868;2024-01-15T07:27:03;10.43;;;4.68;;
6828;SDS011;17930;48.592;8.868;2024-01-15T07:29:34;13.00;;;5.13;;
6828;SDS011;17930;48.592;8.868;2024-01-15T07:32:05;12.27;;;5.70;;
6828;SDS011;17930;48.592;8.868;2024-01-15T07:34:32;12.73;;;4.95;;
6828;SDS011;17930;48.592;8.868;2024-01-15T07:36:59;15.13;;;5.97;;
6828;SDS011;17930;48.592;8.868;2024-01-15T07:39:26;11.27;;;5.93;;
6828;SDS011;17930;48.592;8.868;2024-01-15T07:41:54;12.40;;;5.35;;
6828;SDS011;17930;48.592;8.868;2024-01-15T07:44:21;13.45;;;4.80;;
6828;SDS011;17930;48.592;8.868;2024-01-15T07:46:47;11.77;;;5.18;;
6828;SDS011;17930;48.592;8.868;2024-01-15T07:49:15;13.50;;;4.93;;
6828;SDS011;17930;48.592;8.868;2024-01-15T07:51:42;10.80;;;4.13;;
6828;SDS011;17930;48.592;8.868;2024-01-15T07:54:11;10.55;;;4.05;;
6828;SDS011;17930;48.592;8.868;2024-01-15T07:56:52;11.63;;;4.07;;
6828;SDS011;17930;48.592;8.868;2024-01-15T07:59:20;9.75;;;4.60;;
6828;SDS011;17930;48.592;8.868;2024-01-15T08:01:46;9.05;;;4.35;;
6828;SDS011;17930;48.592;8.868;2024-01-15T08:04:13;10.45;;;4.80;;
6828;SDS011;17930;48.592;8.868;2024-01-15T08:06:41;9.50;;;3.70;;
6828;SDS011;17930;48.592;8.868;2024-01-15T08:09:08;9.30;;;3.70;;
6828;SDS011;17930;48.592;8.868;2024-01-15T08:11:38;8.60;;;4.18;;
6828;SDS011;17930;48.592;8.868;2024-01-15T08:14:05;9.68;;;3.58;;
6828;SDS011;17930;48.592;8.868;2024-01-15T08:16:32;7.85;;;4.07;;
6828;SDS011;17930;48.592;8.868;2024-01-15T08:18:59;8.57;;;3.17;;
6828;SDS011;17930;48.592;8.868;2024-01-15T08:21:26;7.68;;;3.90;;
6828;SDS011;17930;48.592;8.868;2024-01-15T08:23:56;8.80;;;4.20;;
6828;SDS011;17930;48.592;8.868;2024-01-15T08:26:23;10.90;;;5.20;;
6828;SDS011;17930;48.592;8.868;2024-01-15T08:28:49;5.78;;;3.33;;
6828;SDS011;17930;48.592;8.868;2024-01-15T08:31:16;8.63;;;4.15;;
6828;SDS011;17930;48.592;8.868;2024-01-15T08:33:46;9.93;;;3.97;;
6828;SDS011;17930;48.592;8.868;2024-01-15T08:36:13;8.93;;;4.43;;
6828;SDS011;17930;48.592;8.868;2024-01-15T08:38:40;8.82;;;3.85;;
6828;SDS011;17930;48.592;8.868;2024-01-15T08:41:07;7.20;;;2.95;;
6828;SDS011;17930;48.592;8.868;2024-01-15T08:43:34;7.38;;;3.63;;
6828;SDS011;17930;48.592;8.868;2024-01-15T08:46:01;7.75;;;3.42;;
6828;SDS011;17930;48.592;8.868;2024-01-15T08:48:29;7.93;;;3.70;;
6828;SDS011;17930;48.592;8.868;2024-01-15T08:50:59;7.70;;;4.07;;
6828;SDS011;17930;48.592;8.868;2024-01-15T08:53:26;7.82;;;2.90;;
6828;SDS011;17930;48.592;8.868;2024-01-15T08:55:53;7.20;;;3.10;;
6828;SDS011;17930;48.592;8.868;2024-01-15T08:58:22;8.63;;;4.43;;
6828;SDS011;17930;48.592;8.868;2024-01-15T09:00:49;6.00;;;3.08;;
6828;SDS011;17930;48.592;8.868;2024-01-15T09:03:17;6.93;;;3.05;;
6828;SDS011;17930;48.592;8.868;2024-01-15T09:05:44;6.15;;;3.08;;
6828;SDS011;17930;48.592;8.868;2024-01-15T09:08:11;6.75;;;3.22;;
6828;SDS011;17930;48.592;8.868;2024-01-15T09:10:38;6.15;;;3.33;;
6828;SDS011;17930;48.592;8.868;2024-01-15T09:13:06;7.22;;;3.45;;
6828;SDS011;17930;48.592;8.868;2024-01-15T09:15:34;7.25;;;3.22;;
6828;SDS011;17930;48.592;8.868;2024-01-15T09:18:02;7.53;;;4.00;;
6828;SDS011;17930;48.592;8.868;2024-01-15T09:20:30;7.07;;;3.28;;
6828;SDS011;17930;48.592;8.868;2024-01-15T09:22:57;8.55;;;2.88;;
6828;SDS011;17930;48.592;8.868;2024-01-15T09:25:25;9.32;;;3.63;;
6828;SDS011;17930;48.592;8.868;2024-01-15T09:27:52;10.40;;;3.97;;
6828;SDS011;17930;48.592;8.868;2024-01-15T09:30:19;7.05;;;3.55;;
6828;SDS011;17930;48.592;8.868;2024-01-15T09:32:47;9.55;;;2.92;;
6828;SDS011;17930;48.592;8.868;2024-01-15T09:35:14;6.90;;;2.88;;
6828;SDS011;17930;48.592;8.868;2024-01-15T09:37:41;7.93;;;3.17;;
6828;SDS011;17930;48.592;8.868;2024-01-15T09:40:08;9.52;;;3.60;;
6828;SDS011;17930;48.592;8.868;2024-01-15T09:42:40;9.43;;;3.55;;
6828;SDS011;17930;48.592;8.868;2024-01-15T09:45:08;8.48;;;3.33;;
6828;SDS011;17930;48.592;8.868;2024-01-15T09:47:35;8.13;;;3.08;;
6828;SDS011;17930;48.592;8.868;2024-01-15T09:50:05;4.90;;;2.67;;
6828;SDS011;17930;48.592;8.868;2024-01-15T09:52:32;8.60;;;2.47;;
6828;SDS011;17930;48.592;8.868;2024-01-15T09:55:02;8.32;;;3.30;;
6828;SDS011;17930;48.592;8.868;2024-01-15T09:57:31;5.47;;;2.78;;
6828;SDS011;17930;48.592;8.868;2024-01-15T09:59:58;7.95;;;3.45;;
6828;SDS011;17930;48.592;8.868;2024-01-15T10:02:29;6.20;;;2.95;;
6828;SDS011;17930;48.592;8.868;2024-01-15T10:04:57;7.57;;;2.65;;
6828;SDS011;17930;48.592;8.868;2024-01-15T10:07:25;6.05;;;3.20;;
6828;SDS011;17930;48.592;8.868;2024-01-15T10:09:53;9.73;;;2.95;;
6828;SDS011;17930;48.592;8.868;2024-01-15T10:12:20;7.65;;;3.00;;
6828;SDS011;17930;48.592;8.868;2024-01-15T10:14:48;5.32;;;2.55;;
6828;SDS011;17930;48.592;8.868;2024-01-15T10:17:15;5.88;;;3.17;;
6828;SDS011;17930;48.592;8.868;2024-01-15T10:19:45;4.60;;;2.45;;
6828;SDS011;17930;48.592;8.868;2024-01-15T10:22:13;8.25;;;3.20;;
6828;SDS011;17930;48.592;8.868;2024-01-15T10:24:42;7.47;;;3.63;;
6828;SDS011;17930;48.592;8.868;2024-01-15T10:27:09;6.18;;;3.08;;
6828;SDS011;17930;48.592;8.868;2024-01-15T10:29:36;6.93;;;2.90;;
6828;SDS011;17930;48.592;8.868;2024-01-15T10:32:03;8.05;;;3.55;;
6828;SDS011;17930;48.592;8.868;2024-01-15T10:34:33;5.72;;;3.08;;
6828;SDS011;17930;48.592;8.868;2024-01-15T10:37:03;9.25;;;3.05;;
6828;SDS011;17930;48.592;8.868;2024-01-15T10:39:30;6.82;;;2.88;;
6828;SDS011;17930;48.592;8.868;2024-01-15T10:41:58;4.90;;;2.53;;
6828;SDS011;17930;48.592;8.868;2024-01-15T10:44:25;5.97;;;3.45;;
6828;SDS011;17930;48.592;8.868;2024-01-15T10:46:53;6.78;;;3.15;;
6828;SDS011;17930;48.592;8.868;2024-01-15T10:49:21;9.05;;;3.40;;
6828;SDS011;17930;48.592;8.868;2024-01-15T10:51:51;7.63;;;2.92;;
6828;SDS011;17930;48.592;8.868;2024-01-15T10:54:18;6.15;;;3.38;;
6828;SDS011;17930;48.592;8.868;2024-01-15T10:56:46;7.10;;;3.35;;
6828;SDS011;17930;48.592;8.868;2024-01-15T10:59:14;7.85;;;3.47;;
6828;SDS011;17930;48.592;8.868;2024-01-15T11:01:41;6.80;;;3.60;;
6828;SDS011;17930;48.592;8.868;2024-01-15T11:04:10;4.40;;;2.38;;
6828;SDS011;17930;48.592;8.868;2024-01-15T11:06:41;6.75;;;3.13;;
6828;SDS011;17930;48.592;8.868;2024-01-15T11:09:12;5.80;;;3.10;;
6828;SDS011;17930;48.592;8.868;2024-01-15T11:11:41;7.45;;;3.65;;
6828;SDS011;17930;48.592;8.868;2024-01-15T11:14:09;8.65;;;4.25;;
6828;SDS011;17930;48.592;8.868;2024-01-15T11:16:56;6.22;;;3.20;;
6828;SDS011;17930;48.592;8.868;2024-01-15T11:19:24;6.10;;;2.72;;
6828;SDS011;17930;48.592;8.868;2024-01-15T11:21:51;5.70;;;3.08;;
6828;SDS011;17930;48.592;8.868;2024-01-15T11:24:34;8.23;;;3.08;;
6828;SDS011;17930;48.592;8.868;2024-01-15T11:27:01;9.40;;;3.28;;
6828;SDS011;17930;48.592;8.868;2024-01-15T11:29:29;6.30;;;3.08;;
6828;SDS011;17930;48.592;8.868;2024-01-15T11:31:58;6.82;;;2.78;;
6828;SDS011;17930;48.592;8.868;2024-01-15T11:37:27;6.85;;;2.75;;
6828;SDS011;17930;48.592;8.868;2024-01-15T11:39:55;4.97;;;2.33;;
6828;SDS011;17930;48.592;8.868;2024-01-15T11:42:22;9.18;;;3.80;;
6828;SDS011;17930;48.592;8.868;2024-01-15T11:44:49;8.35;;;3.38;;
6828;SDS011;17930;48.592;8.868;2024-01-15T11:47:21;7.20;;;3.67;;
6828;SDS011;17930;48.592;8.868;2024-01-15T11:50:06;7.18;;;3.60;;
6828;SDS011;17930;48.592;8.868;2024-01-15T11:52:34;7.72;;;3.97;;
6828;SDS011;17930;48.592;8.868;2024-01-15T11:55:07;6.40;;;2.78;;
6828;SDS011;17930;48.592;8.868;2024-01-15T11:57:42;5.05;;;2.75;;
6828;SDS011;17930;48.592;8.868;2024-01-15T12:00:12;6.35;;;3.17;;
6828;SDS011;17930;48.592;8.868;2024-01-15T12:02:41;6.72;;;2.92;;
6828;SDS011;17930;48.592;8.868;2024-01-15T12:05:09;6.03;;;3.83;;
6828;SDS011;17930;48.592;8.868;2024-01-15T12:07:38;8.52;;;3.92;;
6828;SDS011;17930;48.592;8.868;2024-01-15T12:10:07;10.52;;;4.68;;
6828;SDS011;17930;48.592;8.868;2024-01-15T12:12:37;8.23;;;3.97;;
6828;SDS011;17930;48.592;8.868;2024-01-15T12:15:14;12.90;;;5.43;;
6828;SDS011;17930;48.592;8.868;2024-01-15T12:17:42;11.65;;;5.07;;
6828;SDS011;17930;48.592;8.868;2024-01-15T12:20:09;7.07;;;3.67;;
6828;SDS011;17930;48.592;8.868;2024-01-15T12:22:37;9.52;;;4.20;;
6828;SDS011;17930;48.592;8.868;2024-01-15T12:25:06;5.35;;;3.10;;
6828;SDS011;17930;48.592;8.868;2024-01-15T12:27:33;6.38;;;3.60;;
6828;SDS011;17930;48.592;8.868;2024-01-15T12:30:03;8.65;;;3.95;;
6828;SDS011;17930;48.592;8.868;2024-01-15T12:32:30;7.75;;;3.42;;
6828;SDS011;17930;48.592;8.868;2024-01-15T12:34:59;8.20;;;4.00;;
6828;SDS011;17930;48.592;8.868;2024-01-15T12:37:26;7.85;;;3.85;;
6828;SDS011;17930;48.592;8.868;2024-01-15T12:39:53;9.60;;;4.53;;
6828;SDS011;17930;48.592;8.868;2024-01-15T12:42:21;6.20;;;3.45;;
6828;SDS011;17930;48.592;8.868;2024-01-15T12:44:48;9.07;;;4.50;;
6828;SDS011;17930;48.592;8.868;2024-01-15T12:47:15;9.43;;;3.85;;
6828;SDS011;17930;48.592;8.868;2024-01-15T12:49:46;10.93;;;5.20;;
6828;SDS011;17930;48.592;8.868;2024-01-15T12:52:14;12.25;;;4.95;;
6828;SDS011;17930;48.592;8.868;2024-01-15T12:54:41;8.13;;;4.28;;
6828;SDS011;17930;48.592;8.868;2024-01-15T12:57:07;6.47;;;3.67;;
6828;SDS011;17930;48.592;8.868;2024-01-15T12:59:34;6.22;;;3.47;;
6828;SDS011;17930;48.592;8.868;2024-01-15T13:02:01;8.20;;;3.65;;
6828;SDS011;17930;48.592;8.868;2024-01-15T13:04:27;6.32;;;3.70;;
6828;SDS011;17930;48.592;8.868;2024-01-15T13:06:55;8.00;;;3.13;;
6828;SDS011;17930;48.592;8.868;2024-01-15T13:09:23;8.88;;;3.72;;
6828;SDS011;17930;48.592;8.868;2024-01-15T13:11:50;6.45;;;3.53;;
6828;SDS011;17930;48.592;8.868;2024-01-15T13:14:18;5.55;;;3.08;;
6828;SDS011;17930;48.592;8.868;2024-01-15T13:16:44;6.45;;;3.63;;
6828;SDS011;17930;48.592;8.868;2024-01-15T13:19:11;8.23;;;3.60;;
6828;SDS011;17930;48.592;8.868;2024-01-15T13:21:38;5.97;;;3.38;;
6828;SDS011;17930;48.592;8.868;2024-01-15T13:24:05;6.22;;;3.03;;
6828;SDS011;17930;48.592;8.868;2024-01-15T13:26:33;5.80;;;2.83;;
6828;SDS011;17930;48.592;8.868;2024-01-15T13:29:01;7.18;;;3.60;;
6828;SDS011;17930;48.592;8.868;2024-01-15T13:31:28;7.38;;;3.20;;
6828;SDS011;17930;48.592;8.868;2024-01-15T13:33:55;4.82;;;2.83;;
6828;SDS011;17930;48.592;8.868;2024-01-15T13:36:23;6.57;;;3.90;;
6828;SDS011;17930;48.592;8.868;2024-01-15T13:38:50;7.60;;;3.53;;
6828;SDS011;17930;48.592;8.868;2024-01-15T13:41:17;6.93;;;3.50;;
6828;SDS011;17930;48.592;8.868;2024-01-15T13:43:48;10.05;;;3.90;;
6828;SDS011;17930;48.592;8.868;2024-01-15T13:46:16;8.45;;;3.72;;
6828;SDS011;17930;48.592;8.868;2024-01-15T13:48:42;7.82;;;4.20;;
6828;SDS011;17930;48.592;8.868;2024-01-15T13:51:09;7.07;;;3.63;;
6828;SDS011;17930;48.592;8.868;2024-01-15T13:53:37;8.98;;;3.63;;
6828;SDS011;17930;48.592;8.868;2024-01-15T13:56:04;10.32;;;3.97;;
6828;SDS011;17930;48.592;8.868;2024-01-15T13:58:31;7.82;;;3.97;;
6828;SDS011;17930;48.592;8.868;2024-01-15T14:01:00;7.30;;;3.95;;
6828;SDS011;17930;48.592;8.868;2024-01-15T14:03:28;7.38;;;3.90;;
6828;SDS011;17930;48.592;8.868;2024-01-15T14:05:55;8.60;;;4.28;;
6828;SDS011;17930;48.592;8.868;2024-01-15T14:08:23;6.97;;;3.85;;
6828;SDS011;17930;48.592;8.868;2024-01-15T14:10:50;9.13;;;4.43;;
6828;SDS011;17930;48.592;8.868;2024-01-15T14:13:17;8.68;;;3.70;;
6828;SDS011;17930;48.592;8.868;2024-01-15T14:15:44;5.30;;;2.95;;
6828;SDS011;17930;48.592;8.868;2024-01-15T14:18:12;6.03;;;3.28;;
6828;SDS011;17930;48.592;8.868;2024-01-15T14:20:39;5.57;;;2.90;;
6828;SDS011;17930;48.592;8.868;2024-01-15T14:23:05;7.25;;;3.40;;
6828;SDS011;17930;48.592;8.868;2024-01-15T14:25:32;5.97;;;3.05;;
6828;SDS011;17930;48.592;8.868;2024-01-15T14:27:59;5.80;;;2.70;;
6828;SDS011;17930;48.592;8.868;2024-01-15T14:30:25;4.60;;;2.55;;
6828;SDS011;17930;48.592;8.868;2024-01-15T14:32:52;4.95;;;3.05;;
6828;SDS011;17930;48.592;8.868;2024-01-15T14:35:20;5.78;;;3.00;;
6828;SDS011;17930;48.592;8.868;2024-01-15T14:37:47;4.20;;;2.67;;
6828;SDS011;17930;48.592;8.868;2024-01-15T14:40:14;4.22;;;2.63;;
6828;SDS011;17930;48.592;8.868;2024-01-15T14:42:41;3.65;;;2.65;;
6828;SDS011;17930;48.592;8.868;2024-01-15T14:45:08;6.32;;;2.70;;
6828;SDS011;17930;48.592;8.868;2024-01-15T14:47:36;2.80;;;1.80;;
6828;SDS011;17930;48.592;8.868;2024-01-15T14:50:04;3.13;;;1.55;;
6828;SDS011;17930;48.592;8.868;2024-01-15T14:52:33;5.68;;;2.13;;
6828;SDS011;17930;48.592;8.868;2024-01-15T14:55:00;2.88;;;1.77;;
6828;SDS011;17930;48.592;8.868;2024-01-15T14:57:27;5.03;;;2.03;;
6828;SDS011;17930;48.592;8.868;2024-01-15T14:59:54;4.13;;;1.70;;